This is the latest recevied weather packets stored in our database for station/object Krauchnws. If no packets are shown the sender has not sent any weather packets the latest 10 day(s).
| Time | Temp. | Humidity | Pressure | Rain* | Wind** | Luminosity | Snow |
|---|---|---|---|---|---|---|---|
| 1777626132 | 12.78° C | 41% | 1025.6 hPa | 0 mm | - | - | - |
| 1777624331 | 11.67° C | 42% | 1025.5 hPa | 0 mm | - | - | - |
| 1777622532 | 10° C | 44% | 1025.5 hPa | 0 mm | - | - | - |
| 1777620733 | 8.33° C | 46% | 1025.5 hPa | 0 mm | - | - | - |
| 1777618930 | 7.78° C | 48% | 1025.6 hPa | 0 mm | - | - | - |
| 1777617131 | 6.67° C | 50% | 1025.4 hPa | 0 mm | - | - | - |
| 1777615333 | 5.56° C | 52% | 1025.2 hPa | 0 mm | - | - | - |
| 1777613531 | 3.89° C | 57% | 1025.1 hPa | 0 mm | - | - | - |
| 1777611731 | 3.33° C | 59% | 1024.7 hPa | 0 mm | - | - | - |
| 1777609931 | 2.78° C | 60% | 1024.5 hPa | 0 mm | - | - | - |
| 1777608131 | 3.33° C | 57% | 1024.4 hPa | 0 mm | - | - | - |
| 1777606332 | 3.89° C | 54% | 1024.3 hPa | 0 mm | - | - | - |
| 1777604532 | 4.44° C | 52% | 1024.5 hPa | 0 mm | - | - | - |
| 1777602733 | 5° C | 50% | 1024.4 hPa | 0 mm | - | - | - |
| 1777600931 | 5° C | 50% | 1024.5 hPa | 0 mm | - | - | - |
| 1777599131 | 5° C | 49% | 1024.6 hPa | 0 mm | - | - | - |
| 1777597332 | 5.56° C | 48% | 1024.6 hPa | 0 mm | - | - | - |
| 1777595529 | 5.56° C | 47% | 1024.6 hPa | 0 mm | - | - | - |
| 1777593730 | 6.11° C | 45% | 1024.5 hPa | 0 mm | - | - | - |
| 1777591929 | 6.11° C | 44% | 1024.6 hPa | 0 mm | - | - | - |
| 1777590129 | 6.67° C | 43% | 1024.6 hPa | 0 mm | - | - | - |
| 1777588329 | 6.67° C | 43% | 1024.2 hPa | 0 mm | - | - | - |
| 1777586529 | 7.78° C | 41% | 1024.3 hPa | 0 mm | - | - | - |
| 1777584729 | 7.78° C | 41% | 1024.2 hPa | 0 mm | - | - | - |
| 1777582929 | 8.33° C | 38% | 1024.2 hPa | 0 mm | - | - | - |
* Rain since midnight (hover to see other rain measurements)
** Current wind speed in m/s (hover to see current wind gust speed)